Granville, OH (43023)

11:19 AM EST on December 10, 2016 (GMT -0500)
Granville South | | Change Station

Elev 1060 ft 40.05 °N, 82.57 °W | Updated 3 minutes ago

Overcast
Overcast
21.9 °F
Feels Like 22 °F
N
0.0
Wind Variable Wind from SSE
Gusts 0.0 mph

Today
High -- | Low -- °F
--% Chance of Precip.
Yesterday
High -- | Low -- °F
Precip. -- in
Pressure 30.53 in
Visibility 2.5 miles
Clouds Overcast 1300 ft
Windchill 22 °F
Dew Point 18 °F
Humidity 83%
Rainfall 0.00 in
Snow Depth Not available.
7:41 AM 5:04 PM
Waxing Gibbous, 84% visible
SPECI KVTA 101607Z AUTO 27005KT 2 1/2SM -SN OVC013 M04/M08 A3053 RMK AO2 P0000 T10441078
Pressure 30.53 in
Visibility 2.5 miles
Clouds Overcast 1300 ft
Windchill 22 °F
Dew Point 18 °F
Humidity 83%
Rainfall 0.00 in
Snow Depth Not available.
7:41 AM 5:04 PM
Waxing Gibbous, 84% visible
SPECI KVTA 101607Z AUTO 27005KT 2 1/2SM -SN OVC013 M04/M08 A3053 RMK AO2 P0000 T10441078

10-Day Weather Forecast

Almanac

Astronomy

Dec. 10, 2016 Rise Set
Actual Time
Civil Twilight
Nautical Twilight
Astronomical Twilight
Moon
Length of Visible Light
Length of Day
Tomorrow will be .
, % of the Moon is Illuminated

Today's Extremes

State Highs State Lows

Community

WunderPhotos

Upload Photos

1,956,569 photos uploaded!

WunderBlog® & News

Nearby

Air Quality

  Air Quality AQ Index Pollutant
Not available.

Snow Depth

Station Depth Elevation

Earthquake Activity

City Distance Mag. Time & Date
Minimum magnitude displayed is 2.5.

Coastal Water Temperatures

Place Temperature

Stations

Nearby Weather Stations

Station Location Temp. Windchill Dew Point Humidity Wind Precip. Elev Updated Type
                   

Watches & Warnings

There are currently no watches in effect.